createdAt,value
2017-09-25T00:00:17.317Z,1014.28
2017-09-25T00:01:17.305Z,1014.29
2017-09-25T00:02:17.294Z,1014.28
2017-09-25T00:03:17.280Z,1014.29
2017-09-25T00:04:17.266Z,1014.28
2017-09-25T00:05:17.256Z,1014.27
2017-09-25T00:06:17.242Z,1014.25
2017-09-25T00:07:17.228Z,1014.22
2017-09-25T00:08:17.216Z,1014.24
2017-09-25T00:09:17.205Z,1014.25
2017-09-25T00:10:17.195Z,1014.26
2017-09-25T00:11:17.180Z,1014.23
2017-09-25T00:12:17.169Z,1014.23
2017-09-25T00:13:17.157Z,1014.22
2017-09-25T00:14:17.142Z,1014.18
2017-09-25T00:15:17.127Z,1014.18
2017-09-25T00:16:17.117Z,1014.17
2017-09-25T00:17:17.103Z,1014.18
2017-09-25T00:18:17.089Z,1014.15
2017-09-25T00:19:17.082Z,1014.15
2017-09-25T00:20:17.066Z,1014.16
2017-09-25T00:21:17.051Z,1014.11
2017-09-25T00:22:17.039Z,1014.11
2017-09-25T00:23:17.026Z,1014.1
2017-09-25T00:24:17.019Z,1014.1
2017-09-25T00:25:17.002Z,1014.09
2017-09-25T00:26:16.990Z,1014.09
2017-09-25T00:27:16.980Z,1014.09
2017-09-25T00:28:16.964Z,1014.06
2017-09-25T00:29:16.953Z,1014.05
2017-09-25T00:30:16.941Z,1014.05
2017-09-25T00:31:16.930Z,1014.01
2017-09-25T00:32:16.914Z,1014.02
2017-09-25T00:33:16.901Z,1014.01
2017-09-25T00:34:16.898Z,1014.03
2017-09-25T00:35:16.876Z,1014.02
2017-09-25T00:36:16.864Z,1013.95
2017-09-25T00:37:16.851Z,1013.99
2017-09-25T00:38:16.838Z,1013.94
2017-09-25T00:39:16.827Z,1013.94
2017-09-25T00:40:16.817Z,1013.95
2017-09-25T00:41:16.801Z,1013.86
2017-09-25T00:42:16.788Z,1013.97
2017-09-25T00:43:16.777Z,1013.97
2017-09-25T00:44:16.761Z,1013.95
2017-09-25T00:45:16.750Z,1013.99
2017-09-25T00:46:16.738Z,1013.97
2017-09-25T00:47:16.724Z,1014
2017-09-25T00:48:16.710Z,1013.94
2017-09-25T00:49:16.698Z,1013.93
2017-09-25T00:50:16.683Z,1013.93
2017-09-25T00:51:16.671Z,1013.93
2017-09-25T00:52:16.659Z,1013.92
2017-09-25T00:53:16.645Z,1013.91
2017-09-25T00:54:16.632Z,1013.92
2017-09-25T00:55:16.620Z,1013.91
2017-09-25T00:56:16.607Z,1013.89
2017-09-25T00:57:16.594Z,1013.88
2017-09-25T00:58:16.581Z,1013.9
2017-09-25T00:59:16.566Z,1013.88
2017-09-25T01:00:16.554Z,1013.88
2017-09-25T01:01:16.542Z,1013.86
2017-09-25T01:02:16.529Z,1013.85
2017-09-25T01:03:16.517Z,1013.85
2017-09-25T01:04:16.502Z,1013.84
2017-09-25T01:05:16.486Z,1013.89
2017-09-25T01:06:16.474Z,1013.85
2017-09-25T01:07:16.462Z,1013.88
2017-09-25T01:08:16.450Z,1013.85
2017-09-25T01:09:16.435Z,1013.88
2017-09-25T01:10:16.424Z,1013.85
2017-09-25T01:11:16.408Z,1013.86
2017-09-25T01:12:16.398Z,1013.81
2017-09-25T01:13:16.405Z,1013.78
2017-09-25T01:14:16.372Z,1013.77
2017-09-25T01:15:16.356Z,1013.75
2017-09-25T01:16:16.342Z,1013.74
2017-09-25T01:17:16.329Z,1013.73
2017-09-25T01:18:16.319Z,1013.7
2017-09-25T01:19:16.303Z,1013.69
2017-09-25T01:20:16.292Z,1013.7
2017-09-25T01:21:16.274Z,1013.65
2017-09-25T01:22:16.263Z,1013.65
2017-09-25T01:23:16.248Z,1013.62
2017-09-25T01:24:16.238Z,1013.61
2017-09-25T01:25:16.223Z,1013.56
2017-09-25T01:26:16.213Z,1013.65
2017-09-25T01:27:16.230Z,1013.62
2017-09-25T01:28:16.180Z,1013.59
2017-09-25T01:29:16.168Z,1013.6
2017-09-25T01:30:16.154Z,1013.61
2017-09-25T01:31:16.144Z,1013.58
2017-09-25T01:32:16.128Z,1013.62
2017-09-25T01:33:16.117Z,1013.64
2017-09-25T01:34:16.100Z,1013.64
2017-09-25T01:35:16.089Z,1013.62
2017-09-25T01:36:16.080Z,1013.62
2017-09-25T01:37:16.065Z,1013.61
2017-09-25T01:38:16.049Z,1013.64
2017-09-25T01:39:16.036Z,1013.63
2017-09-25T01:40:16.028Z,1013.69
2017-09-25T01:41:16.007Z,1013.69
2017-09-25T01:42:15.994Z,1013.7
2017-09-25T01:43:15.979Z,1013.71
2017-09-25T01:44:15.969Z,1013.72
2017-09-25T01:45:15.955Z,1013.63
2017-09-25T01:46:15.945Z,1013.63
2017-09-25T01:47:15.926Z,1013.62
2017-09-25T01:48:15.916Z,1013.63
2017-09-25T01:49:15.901Z,1013.64
2017-09-25T01:50:15.887Z,1013.62
2017-09-25T01:51:15.871Z,1013.6
2017-09-25T01:52:15.859Z,1013.58
2017-09-25T01:53:15.895Z,1013.55
2017-09-25T01:54:15.831Z,1013.59
2017-09-25T01:55:15.821Z,1013.6
2017-09-25T01:56:15.805Z,1013.61
2017-09-25T01:57:15.995Z,1013.66
2017-09-25T01:58:15.791Z,1013.65
2017-09-25T01:59:15.766Z,1013.6
2017-09-25T02:00:15.753Z,1013.58
2017-09-25T02:01:15.741Z,1013.58
2017-09-25T02:02:15.725Z,1013.58
2017-09-25T02:03:15.712Z,1013.58
2017-09-25T02:04:15.698Z,1013.62
2017-09-25T02:05:15.684Z,1013.62
2017-09-25T02:06:15.672Z,1013.61
2017-09-25T02:07:15.657Z,1013.62
2017-09-25T02:08:15.645Z,1013.63
2017-09-25T02:09:15.630Z,1013.62
2017-09-25T02:10:15.615Z,1013.64
2017-09-25T02:11:15.606Z,1013.65
2017-09-25T02:12:15.593Z,1013.62
2017-09-25T02:13:15.611Z,1013.63
2017-09-25T02:14:15.561Z,1013.65
2017-09-25T02:15:15.549Z,1013.59
2017-09-25T02:16:15.536Z,1013.62
2017-09-25T02:17:15.521Z,1013.65
2017-09-25T02:18:15.505Z,1013.61
2017-09-25T02:19:15.494Z,1013.6
2017-09-25T02:20:15.482Z,1013.6
2017-09-25T02:21:15.468Z,1013.6
2017-09-25T02:22:15.453Z,1013.57
2017-09-25T02:23:15.438Z,1013.54
2017-09-25T02:24:15.431Z,1013.54
2017-09-25T02:25:15.411Z,1013.56
2017-09-25T02:26:15.396Z,1013.55
2017-09-25T02:27:15.384Z,1013.53
2017-09-25T02:28:15.370Z,1013.53
2017-09-25T02:29:15.359Z,1013.52
2017-09-25T02:30:15.345Z,1013.5
2017-09-25T02:31:15.335Z,1013.52
2017-09-25T02:32:15.317Z,1013.52
2017-09-25T02:33:15.305Z,1013.5
2017-09-25T02:34:15.286Z,1013.45
2017-09-25T02:35:15.274Z,1013.46
2017-09-25T02:36:15.259Z,1013.48
2017-09-25T02:37:15.246Z,1013.44
2017-09-25T02:38:15.232Z,1013.42
2017-09-25T02:39:15.220Z,1013.44
2017-09-25T02:40:15.206Z,1013.47
2017-09-25T02:41:15.190Z,1013.44
2017-09-25T02:42:15.179Z,1013.48
2017-09-25T02:43:15.160Z,1013.43
2017-09-25T02:44:15.147Z,1013.41
2017-09-25T02:45:15.134Z,1013.39
2017-09-25T02:46:15.124Z,1013.38
2017-09-25T02:47:15.104Z,1013.37
2017-09-25T02:48:15.094Z,1013.36
2017-09-25T02:49:15.080Z,1013.34
2017-09-25T02:50:15.065Z,1013.36
2017-09-25T02:51:15.053Z,1013.36
2017-09-25T02:52:15.037Z,1013.35
2017-09-25T02:53:15.024Z,1013.33
2017-09-25T02:54:15.010Z,1013.36
2017-09-25T02:55:14.993Z,1013.31
2017-09-25T02:56:14.983Z,1013.35
2017-09-25T02:57:14.972Z,1013.33
2017-09-25T02:58:14.952Z,1013.36
2017-09-25T02:59:14.939Z,1013.32
2017-09-25T03:00:14.928Z,1013.33
2017-09-25T03:01:14.915Z,1013.33
2017-09-25T03:02:14.900Z,1013.31
2017-09-25T03:03:14.882Z,1013.33
2017-09-25T03:04:14.870Z,1013.31
2017-09-25T03:05:14.896Z,1013.34
2017-09-25T03:06:14.839Z,1013.34
2017-09-25T03:07:14.828Z,1013.35
2017-09-25T03:08:14.814Z,1013.41
2017-09-25T03:09:14.797Z,1013.4
2017-09-25T03:10:14.787Z,1013.38
2017-09-25T03:11:14.774Z,1013.41
2017-09-25T03:12:14.758Z,1013.4
2017-09-25T03:13:14.745Z,1013.41
2017-09-25T03:14:14.730Z,1013.4
2017-09-25T03:15:14.715Z,1013.41
2017-09-25T03:16:14.701Z,1013.4
2017-09-25T03:17:14.687Z,1013.38
2017-09-25T03:18:14.673Z,1013.39
2017-09-25T03:19:14.660Z,1013.36
2017-09-25T03:20:14.645Z,1013.35
2017-09-25T03:21:14.630Z,1013.34
2017-09-25T03:22:14.617Z,1013.33
2017-09-25T03:23:14.604Z,1013.33
2017-09-25T03:24:14.590Z,1013.33
2017-09-25T03:25:14.575Z,1013.31
2017-09-25T03:26:14.561Z,1013.31
2017-09-25T03:27:14.550Z,1013.29
2017-09-25T03:28:14.534Z,1013.29
2017-09-25T03:29:14.531Z,1013.29
2017-09-25T03:30:14.507Z,1013.29
2017-09-25T03:31:14.490Z,1013.27
2017-09-25T03:32:14.477Z,1013.31
2017-09-25T03:33:14.463Z,1013.33
2017-09-25T03:34:14.449Z,1013.33
2017-09-25T03:35:14.436Z,1013.28
2017-09-25T03:36:14.423Z,1013.33
2017-09-25T03:37:14.412Z,1013.29
2017-09-25T03:38:14.394Z,1013.33
2017-09-25T03:39:14.386Z,1013.31
2017-09-25T03:40:14.368Z,1013.32
2017-09-25T03:41:14.354Z,1013.25
2017-09-25T03:42:14.344Z,1013.26
2017-09-25T03:43:14.326Z,1013.25
2017-09-25T03:44:14.311Z,1013.26
2017-09-25T03:45:14.296Z,1013.24
2017-09-25T03:46:14.286Z,1013.21
2017-09-25T03:47:14.271Z,1013.16
2017-09-25T03:48:14.257Z,1013.17
2017-09-25T03:49:14.245Z,1013.14
2017-09-25T03:50:14.228Z,1013.15
2017-09-25T03:51:14.215Z,1013.17
2017-09-25T03:52:14.214Z,1013.14
2017-09-25T03:53:14.189Z,1013.22
2017-09-25T03:54:14.175Z,1013.21
2017-09-25T03:55:14.160Z,1013.22
2017-09-25T03:56:14.155Z,1013.21
2017-09-25T03:57:14.337Z,1013.22
2017-09-25T03:58:14.119Z,1013.2
2017-09-25T03:59:14.105Z,1013.18
2017-09-25T04:00:14.094Z,1013.17
2017-09-25T04:01:14.079Z,1013.15
2017-09-25T04:02:14.064Z,1013.16
2017-09-25T04:03:14.050Z,1013.13
2017-09-25T04:04:14.036Z,1013.14
2017-09-25T04:05:14.022Z,1013.1
2017-09-25T04:06:14.008Z,1013.11
2017-09-25T04:07:13.995Z,1013.12
2017-09-25T04:08:13.980Z,1013.12
2017-09-25T04:09:13.968Z,1013.12
2017-09-25T04:10:13.954Z,1013.14
2017-09-25T04:11:13.941Z,1013.18
2017-09-25T04:12:13.933Z,1013.21
2017-09-25T04:13:13.914Z,1013.27
2017-09-25T04:14:13.905Z,1013.28
2017-09-25T04:15:13.890Z,1013.33
2017-09-25T04:16:13.888Z,1013.32
2017-09-25T04:17:13.860Z,1013.32
2017-09-25T04:18:13.846Z,1013.34
2017-09-25T04:19:13.830Z,1013.35
2017-09-25T04:20:13.817Z,1013.34
2017-09-25T04:21:13.805Z,1013.33
2017-09-25T04:22:13.788Z,1013.35
2017-09-25T04:23:13.777Z,1013.3
2017-09-25T04:24:13.763Z,1013.29
2017-09-25T04:25:13.754Z,1013.29
2017-09-25T04:26:13.743Z,1013.3
2017-09-25T04:27:13.720Z,1013.27
2017-09-25T04:28:13.708Z,1013.21
2017-09-25T04:29:13.694Z,1013.21
2017-09-25T04:30:13.679Z,1013.22
2017-09-25T04:31:13.666Z,1013.23
2017-09-25T04:32:13.654Z,1013.23
2017-09-25T04:33:13.640Z,1013.25
2017-09-25T04:34:13.630Z,1013.27
2017-09-25T04:35:13.611Z,1013.26
2017-09-25T04:36:13.597Z,1013.24
2017-09-25T04:37:13.582Z,1013.28
2017-09-25T04:38:13.569Z,1013.26
2017-09-25T04:39:13.558Z,1013.31
2017-09-25T04:40:13.541Z,1013.32
2017-09-25T04:41:13.527Z,1013.3
2017-09-25T04:42:13.513Z,1013.32
2017-09-25T04:43:13.502Z,1013.33
2017-09-25T04:44:13.491Z,1013.37
2017-09-25T04:45:13.479Z,1013.31
2017-09-25T04:46:13.461Z,1013.34
2017-09-25T04:47:13.447Z,1013.33
2017-09-25T04:48:13.430Z,1013.29
2017-09-25T04:49:13.418Z,1013.3
2017-09-25T04:50:13.407Z,1013.28
2017-09-25T04:51:13.390Z,1013.28
2017-09-25T04:52:13.376Z,1013.33
2017-09-25T04:53:13.362Z,1013.29
2017-09-25T04:54:13.354Z,1013.35
2017-09-25T04:55:13.339Z,1013.31
2017-09-25T04:56:13.321Z,1013.33
2017-09-25T04:57:13.307Z,1013.34
2017-09-25T04:58:13.298Z,1013.35
2017-09-25T04:59:13.281Z,1013.36
2017-09-25T05:00:13.268Z,1013.37
2017-09-25T05:01:13.254Z,1013.38
2017-09-25T05:02:13.242Z,1013.38
2017-09-25T05:03:13.229Z,1013.38
2017-09-25T05:04:13.216Z,1013.4
2017-09-25T05:05:13.201Z,1013.37
2017-09-25T05:06:13.187Z,1013.42
2017-09-25T05:07:13.171Z,1013.42
2017-09-25T05:08:13.158Z,1013.39
2017-09-25T05:09:13.144Z,1013.42
2017-09-25T05:10:13.135Z,1013.43
2017-09-25T05:11:13.119Z,1013.42
2017-09-25T05:12:13.108Z,1013.42
2017-09-25T05:13:13.091Z,1013.37
2017-09-25T05:14:13.077Z,1013.38
2017-09-25T05:15:13.065Z,1013.4
2017-09-25T05:16:13.053Z,1013.4
2017-09-25T05:17:13.044Z,1013.4
2017-09-25T05:18:13.027Z,1013.4
2017-09-25T05:19:13.014Z,1013.4
2017-09-25T05:20:12.994Z,1013.44
2017-09-25T05:21:12.988Z,1013.45
2017-09-25T05:22:12.968Z,1013.43
2017-09-25T05:23:12.956Z,1013.44
2017-09-25T05:24:12.942Z,1013.46
2017-09-25T05:25:12.928Z,1013.46
2017-09-25T05:26:12.915Z,1013.44
2017-09-25T05:27:12.902Z,1013.43
2017-09-25T05:28:12.887Z,1013.43
2017-09-25T05:29:12.873Z,1013.44
2017-09-25T05:30:12.861Z,1013.44
2017-09-25T05:31:12.845Z,1013.47
2017-09-25T05:32:12.833Z,1013.46
2017-09-25T05:33:12.821Z,1013.47
2017-09-25T05:34:12.805Z,1013.43
2017-09-25T05:35:12.793Z,1013.46
2017-09-25T05:36:12.779Z,1013.46
2017-09-25T05:37:12.764Z,1013.44
2017-09-25T05:38:12.753Z,1013.43
2017-09-25T05:39:12.737Z,1013.45
2017-09-25T05:40:12.727Z,1013.46
2017-09-25T05:41:12.709Z,1013.49
2017-09-25T05:42:12.697Z,1013.47
2017-09-25T05:43:12.684Z,1013.49
2017-09-25T05:44:12.671Z,1013.48
2017-09-25T05:45:12.658Z,1013.52
2017-09-25T05:46:12.642Z,1013.53
2017-09-25T05:47:12.631Z,1013.51
2017-09-25T05:48:12.617Z,1013.52
2017-09-25T05:49:12.604Z,1013.5
2017-09-25T05:50:12.589Z,1013.57
2017-09-25T05:51:12.575Z,1013.57
2017-09-25T05:52:12.561Z,1013.58
2017-09-25T05:53:12.549Z,1013.55
2017-09-25T05:54:12.534Z,1013.59
2017-09-25T05:55:12.522Z,1013.57
2017-09-25T05:56:12.508Z,1013.58
2017-09-25T05:57:12.696Z,1013.56
2017-09-25T05:58:12.481Z,1013.58
2017-09-25T05:59:12.468Z,1013.58
2017-09-25T06:00:12.455Z,1013.59
2017-09-25T06:01:12.445Z,1013.6
2017-09-25T06:02:12.427Z,1013.6
2017-09-25T06:03:12.414Z,1013.6
2017-09-25T06:04:12.404Z,1013.62
2017-09-25T06:05:12.387Z,1013.62
2017-09-25T06:06:12.382Z,1013.62
2017-09-25T06:07:12.365Z,1013.64
2017-09-25T06:08:12.348Z,1013.64
2017-09-25T06:09:12.334Z,1013.66
2017-09-25T06:10:12.323Z,1013.65
2017-09-25T06:11:12.312Z,1013.6
2017-09-25T06:12:12.294Z,1013.64
2017-09-25T06:13:12.282Z,1013.66
2017-09-25T06:14:12.270Z,1013.6
2017-09-25T06:15:12.254Z,1013.63
2017-09-25T06:16:12.241Z,1013.61
2017-09-25T06:17:12.232Z,1013.63
2017-09-25T06:18:12.219Z,1013.61
2017-09-25T06:19:12.203Z,1013.58
2017-09-25T06:20:12.189Z,1013.59
2017-09-25T06:21:12.179Z,1013.58
2017-09-25T06:22:12.172Z,1013.61
2017-09-25T06:23:12.151Z,1013.57
2017-09-25T06:24:12.151Z,1013.65
2017-09-25T06:25:12.123Z,1013.58
2017-09-25T06:26:12.109Z,1013.57
2017-09-25T06:27:12.096Z,1013.54
2017-09-25T06:28:12.093Z,1013.54
2017-09-25T06:29:12.071Z,1013.54
2017-09-25T06:30:12.057Z,1013.52
2017-09-25T06:31:12.044Z,1013.53
2017-09-25T06:32:12.034Z,1013.53
2017-09-25T06:33:12.019Z,1013.55
2017-09-25T06:34:12.005Z,1013.57
2017-09-25T06:35:11.991Z,1013.58
2017-09-25T06:36:11.981Z,1013.59
2017-09-25T06:37:11.966Z,1013.58
2017-09-25T06:38:11.957Z,1013.58
2017-09-25T06:39:11.940Z,1013.61
2017-09-25T06:40:11.927Z,1013.58
2017-09-25T06:41:11.913Z,1013.59
2017-09-25T06:42:11.903Z,1013.59
2017-09-25T06:43:11.888Z,1013.59
2017-09-25T06:44:11.877Z,1013.58
2017-09-25T06:45:11.866Z,1013.56
2017-09-25T06:46:11.855Z,1013.5
2017-09-25T06:47:11.841Z,1013.51
2017-09-25T06:48:11.831Z,1013.54
2017-09-25T06:49:11.812Z,1013.53
2017-09-25T06:50:11.799Z,1013.54
2017-09-25T06:51:11.787Z,1013.55
2017-09-25T06:52:11.774Z,1013.53
2017-09-25T06:53:11.760Z,1013.52
2017-09-25T06:54:11.748Z,1013.51
2017-09-25T06:55:11.734Z,1013.51
2017-09-25T06:56:11.724Z,1013.52
2017-09-25T06:57:11.710Z,1013.52
2017-09-25T06:58:11.696Z,1013.48
2017-09-25T06:59:11.687Z,1013.44
2017-09-25T07:00:11.672Z,1013.45
2017-09-25T07:01:11.661Z,1013.46
2017-09-25T07:02:11.647Z,1013.46
2017-09-25T07:03:11.636Z,1013.47
2017-09-25T07:04:11.622Z,1013.46
2017-09-25T07:05:11.612Z,1013.47
2017-09-25T07:06:11.593Z,1013.53
2017-09-25T07:07:11.582Z,1013.52
2017-09-25T07:08:11.571Z,1013.5
2017-09-25T07:09:11.562Z,1013.49
2017-09-25T07:10:11.549Z,1013.47
2017-09-25T07:11:11.535Z,1013.48
2017-09-25T07:12:11.521Z,1013.51
2017-09-25T07:13:11.509Z,1013.45
2017-09-25T07:14:11.500Z,1013.51
2017-09-25T07:15:11.483Z,1013.48
2017-09-25T07:16:11.475Z,1013.52
2017-09-25T07:17:11.458Z,1013.48
2017-09-25T07:18:11.449Z,1013.51
2017-09-25T07:19:11.435Z,1013.5
2017-09-25T07:20:11.421Z,1013.47
2017-09-25T07:21:11.477Z,1013.49
2017-09-25T07:22:11.398Z,1013.51
2017-09-25T07:23:11.386Z,1013.49
2017-09-25T07:24:11.376Z,1013.51
2017-09-25T07:25:11.360Z,1013.52
2017-09-25T07:26:11.348Z,1013.52
2017-09-25T07:27:11.335Z,1013.53
2017-09-25T07:28:11.323Z,1013.5
2017-09-25T07:29:11.310Z,1013.55
2017-09-25T07:30:11.297Z,1013.5
2017-09-25T07:31:11.286Z,1013.56
2017-09-25T07:32:11.273Z,1013.57
2017-09-25T07:33:11.263Z,1013.56
2017-09-25T07:34:11.250Z,1013.53
2017-09-25T07:35:11.239Z,1013.54
2017-09-25T07:36:11.225Z,1013.51
2017-09-25T07:37:11.212Z,1013.52
2017-09-25T07:38:11.201Z,1013.53
2017-09-25T07:39:11.188Z,1013.54
2017-09-25T07:40:11.176Z,1013.46
2017-09-25T07:41:11.166Z,1013.49
2017-09-25T07:42:11.154Z,1013.5
2017-09-25T07:43:11.139Z,1013.49
2017-09-25T07:44:11.129Z,1013.5
2017-09-25T07:45:11.119Z,1013.5
2017-09-25T07:46:11.104Z,1013.54
2017-09-25T07:47:11.094Z,1013.55
2017-09-25T07:48:11.079Z,1013.53
2017-09-25T07:49:11.068Z,1013.54
2017-09-25T07:50:11.056Z,1013.57
2017-09-25T07:51:11.048Z,1013.57
2017-09-25T07:52:11.037Z,1013.54
2017-09-25T07:53:11.021Z,1013.51
2017-09-25T07:54:11.008Z,1013.51
2017-09-25T07:55:10.999Z,1013.56
2017-09-25T07:56:10.986Z,1013.51
2017-09-25T07:57:11.176Z,1013.51
2017-09-25T07:58:10.962Z,1013.52
2017-09-25T07:59:10.951Z,1013.51
2017-09-25T08:00:10.939Z,1013.53
2017-09-25T08:01:10.927Z,1013.54
2017-09-25T08:02:10.947Z,1013.52
2017-09-25T08:03:10.904Z,1013.53
2017-09-25T08:04:10.893Z,1013.47
2017-09-25T08:05:10.880Z,1013.55
2017-09-25T08:06:10.871Z,1013.54
2017-09-25T08:07:10.859Z,1013.53
2017-09-25T08:08:10.846Z,1013.58
2017-09-25T08:09:10.834Z,1013.57
2017-09-25T08:10:10.823Z,1013.58
2017-09-25T08:11:10.812Z,1013.59
2017-09-25T08:12:10.799Z,1013.56
2017-09-25T08:13:10.789Z,1013.61
2017-09-25T08:14:10.776Z,1013.6
2017-09-25T08:15:10.765Z,1013.59
2017-09-25T08:16:10.756Z,1013.64
2017-09-25T08:17:10.744Z,1013.62
2017-09-25T08:18:10.733Z,1013.63
2017-09-25T08:19:10.722Z,1013.61
2017-09-25T08:20:10.710Z,1013.66
2017-09-25T08:21:10.699Z,1013.66
2017-09-25T08:22:10.689Z,1013.62
2017-09-25T08:23:10.677Z,1013.59
2017-09-25T08:24:10.667Z,1013.59
2017-09-25T08:25:10.665Z,1013.6
2017-09-25T08:26:10.646Z,1013.6
2017-09-25T08:27:10.633Z,1013.61
2017-09-25T08:28:10.623Z,1013.63
2017-09-25T08:29:10.664Z,1013.61
2017-09-25T08:30:10.600Z,1013.61
2017-09-25T08:31:10.592Z,1013.58
2017-09-25T08:32:10.582Z,1013.6
2017-09-25T08:33:10.570Z,1013.63
2017-09-25T08:34:10.559Z,1013.62
2017-09-25T08:35:10.547Z,1013.59
2017-09-25T08:36:10.537Z,1013.61
2017-09-25T08:37:10.528Z,1013.65
2017-09-25T08:38:10.515Z,1013.63
2017-09-25T08:39:10.505Z,1013.68
2017-09-25T08:40:10.497Z,1013.68
2017-09-25T08:41:10.483Z,1013.63
2017-09-25T08:42:10.474Z,1013.64
2017-09-25T08:43:10.466Z,1013.63
2017-09-25T08:44:10.456Z,1013.63
2017-09-25T08:45:10.443Z,1013.61
2017-09-25T08:46:10.437Z,1013.63
2017-09-25T08:47:10.425Z,1013.66
2017-09-25T08:48:10.414Z,1013.69
2017-09-25T08:49:10.403Z,1013.72
2017-09-25T08:50:10.394Z,1013.69
2017-09-25T08:51:10.384Z,1013.68
2017-09-25T08:52:10.373Z,1013.69
2017-09-25T08:53:10.363Z,1013.69
2017-09-25T08:54:10.357Z,1013.7
2017-09-25T08:55:10.348Z,1013.7
2017-09-25T08:56:10.336Z,1013.7
2017-09-25T08:57:10.325Z,1013.65
2017-09-25T08:58:10.318Z,1013.69
2017-09-25T08:59:10.306Z,1013.66
2017-09-25T09:00:10.296Z,1013.64
2017-09-25T09:01:10.293Z,1013.66
2017-09-25T09:02:10.280Z,1013.67
2017-09-25T09:03:10.264Z,1013.61
2017-09-25T09:04:10.257Z,1013.62
2017-09-25T09:05:10.246Z,1013.62
2017-09-25T09:06:10.236Z,1013.63
2017-09-25T09:07:10.228Z,1013.61
2017-09-25T09:08:10.219Z,1013.55
2017-09-25T09:09:10.210Z,1013.56
2017-09-25T09:10:10.199Z,1013.56
2017-09-25T09:11:10.192Z,1013.54
2017-09-25T09:12:10.179Z,1013.53
2017-09-25T09:13:10.171Z,1013.52
2017-09-25T09:14:10.161Z,1013.53
2017-09-25T09:15:10.155Z,1013.52
2017-09-25T09:16:10.140Z,1013.52
2017-09-25T09:17:10.130Z,1013.5
2017-09-25T09:18:10.123Z,1013.49
2017-09-25T09:19:10.111Z,1013.5
2017-09-25T09:20:10.101Z,1013.52
2017-09-25T09:21:10.094Z,1013.47
2017-09-25T09:22:10.081Z,1013.48
2017-09-25T09:23:10.071Z,1013.51
2017-09-25T09:24:10.064Z,1013.5
2017-09-25T09:25:10.049Z,1013.53
2017-09-25T09:26:10.040Z,1013.5
2017-09-25T09:27:10.032Z,1013.53
2017-09-25T09:28:10.021Z,1013.52
2017-09-25T09:29:10.012Z,1013.54
2017-09-25T09:30:10.003Z,1013.51
2017-09-25T09:31:09.992Z,1013.52
2017-09-25T09:32:09.981Z,1013.51
2017-09-25T09:33:09.970Z,1013.49
2017-09-25T09:34:09.964Z,1013.49
2017-09-25T09:35:09.950Z,1013.47
2017-09-25T09:36:09.939Z,1013.52
2017-09-25T09:37:09.932Z,1013.48
2017-09-25T09:38:09.924Z,1013.47
2017-09-25T09:39:09.911Z,1013.44
2017-09-25T09:40:09.899Z,1013.45
2017-09-25T09:41:09.890Z,1013.44
2017-09-25T09:42:09.882Z,1013.43
2017-09-25T09:43:09.875Z,1013.41
2017-09-25T09:44:09.861Z,1013.43
2017-09-25T09:45:09.855Z,1013.46
2017-09-25T09:46:09.843Z,1013.44
2017-09-25T09:47:09.832Z,1013.43
2017-09-25T09:48:09.822Z,1013.42
2017-09-25T09:49:09.814Z,1013.42
2017-09-25T09:50:09.811Z,1013.43
2017-09-25T09:51:09.793Z,1013.38
2017-09-25T09:52:09.785Z,1013.39
2017-09-25T09:53:09.776Z,1013.41
2017-09-25T09:54:09.767Z,1013.38
2017-09-25T09:55:09.758Z,1013.35
2017-09-25T09:56:09.748Z,1013.33
2017-09-25T09:57:09.739Z,1013.33
2017-09-25T09:58:09.728Z,1013.33
2017-09-25T09:59:09.721Z,1013.31
2017-09-25T10:00:09.712Z,1013.37
2017-09-25T10:01:09.705Z,1013.32
2017-09-25T10:02:09.694Z,1013.33
2017-09-25T10:03:09.685Z,1013.31
2017-09-25T10:04:09.677Z,1013.33
2017-09-25T10:05:09.669Z,1013.33
2017-09-25T10:06:09.658Z,1013.31
2017-09-25T10:07:09.650Z,1013.33
2017-09-25T10:08:09.642Z,1013.33
2017-09-25T10:09:09.631Z,1013.35
2017-09-25T10:10:09.622Z,1013.31
2017-09-25T10:11:09.614Z,1013.32
2017-09-25T10:12:09.604Z,1013.31
2017-09-25T10:13:09.598Z,1013.27
2017-09-25T10:14:09.588Z,1013.29
2017-09-25T10:15:09.581Z,1013.29
2017-09-25T10:16:09.569Z,1013.31
2017-09-25T10:17:09.559Z,1013.29
2017-09-25T10:18:09.551Z,1013.27
2017-09-25T10:19:09.541Z,1013.26
2017-09-25T10:20:09.532Z,1013.31
2017-09-25T10:21:09.533Z,1013.31
2017-09-25T10:22:09.516Z,1013.34
2017-09-25T10:23:09.510Z,1013.3
2017-09-25T10:24:09.497Z,1013.3
2017-09-25T10:25:09.489Z,1013.3
2017-09-25T10:26:09.480Z,1013.3
2017-09-25T10:27:09.472Z,1013.28
2017-09-25T10:28:09.464Z,1013.26
2017-09-25T10:29:09.453Z,1013.28
2017-09-25T10:30:09.481Z,1013.28
2017-09-25T10:31:09.438Z,1013.25
2017-09-25T10:32:09.428Z,1013.28
2017-09-25T10:33:09.422Z,1013.28
2017-09-25T10:34:09.411Z,1013.31
2017-09-25T10:35:09.404Z,1013.27
2017-09-25T10:36:09.396Z,1013.27
2017-09-25T10:37:09.390Z,1013.25
2017-09-25T10:38:09.377Z,1013.27
2017-09-25T10:39:09.370Z,1013.3
2017-09-25T10:40:09.374Z,1013.25
2017-09-25T10:41:09.353Z,1013.24
2017-09-25T10:42:09.344Z,1013.25
2017-09-25T10:43:09.337Z,1013.25
2017-09-25T10:44:09.330Z,1013.26
2017-09-25T10:45:09.322Z,1013.21
2017-09-25T10:46:09.315Z,1013.22
2017-09-25T10:47:09.305Z,1013.2
2017-09-25T10:48:09.299Z,1013.19
2017-09-25T10:49:09.293Z,1013.14
2017-09-25T10:50:09.282Z,1013.17
2017-09-25T10:51:09.276Z,1013.18
2017-09-25T10:52:09.269Z,1013.22
2017-09-25T10:53:09.259Z,1013.2
2017-09-25T10:54:09.255Z,1013.17
2017-09-25T10:55:09.246Z,1013.18
2017-09-25T10:56:09.240Z,1013.15
2017-09-25T10:57:09.232Z,1013.16
2017-09-25T10:58:09.223Z,1013.13
2017-09-25T10:59:09.223Z,1013.17
2017-09-25T11:00:09.209Z,1013.13
2017-09-25T11:01:09.202Z,1013.11
2017-09-25T11:02:09.195Z,1013.1
2017-09-25T11:03:09.188Z,1013.14
2017-09-25T11:04:09.180Z,1013.12
2017-09-25T11:05:09.173Z,1013.12
2017-09-25T11:06:09.168Z,1013.11
2017-09-25T11:07:09.176Z,1013.12
2017-09-25T11:08:09.156Z,1013.08
2017-09-25T11:09:09.144Z,1013.1
2017-09-25T11:10:09.145Z,1013.06
2017-09-25T11:11:09.141Z,1013.12
2017-09-25T11:12:09.124Z,1013.11
2017-09-25T11:13:09.119Z,1013.11
2017-09-25T11:14:09.144Z,1013.11
2017-09-25T11:15:09.103Z,1013.07
2017-09-25T11:16:09.097Z,1013.09
2017-09-25T11:17:09.093Z,1013.11
2017-09-25T11:18:09.084Z,1013.12
2017-09-25T11:19:09.078Z,1013.12
2017-09-25T11:20:09.072Z,1013.09
2017-09-25T11:21:09.065Z,1013.07
2017-09-25T11:22:09.059Z,1013.07
2017-09-25T11:23:09.051Z,1013.02
2017-09-25T11:24:09.058Z,1012.99
2017-09-25T11:25:09.043Z,1013.01
2017-09-25T11:26:09.037Z,1013.03
2017-09-25T11:27:09.028Z,1013
2017-09-25T11:28:09.024Z,1012.95
2017-09-25T11:29:09.027Z,1012.97
2017-09-25T11:30:09.019Z,1012.97
2017-09-25T11:31:09.009Z,1012.93
2017-09-25T11:32:09.001Z,1012.9
2017-09-25T11:33:08.996Z,1012.88
2017-09-25T11:34:09.194Z,1012.92
2017-09-25T11:35:08.985Z,1012.81
2017-09-25T11:36:08.983Z,1012.85
2017-09-25T11:37:08.972Z,1012.89
2017-09-25T11:38:08.968Z,1012.9
2017-09-25T11:39:08.964Z,1012.9
2017-09-25T11:40:08.956Z,1012.88
2017-09-25T11:41:08.953Z,1012.9
2017-09-25T11:42:08.945Z,1012.89
2017-09-25T11:43:08.940Z,1012.88
2017-09-25T11:44:08.931Z,1012.85
2017-09-25T11:45:08.927Z,1012.84
2017-09-25T11:46:08.920Z,1012.87
2017-09-25T11:47:08.914Z,1012.89
2017-09-25T11:48:08.910Z,1012.86
2017-09-25T11:49:08.903Z,1012.86
2017-09-25T11:50:08.897Z,1012.87
2017-09-25T11:51:08.890Z,1012.9
2017-09-25T11:52:08.885Z,1012.9
2017-09-25T11:53:08.884Z,1012.86
2017-09-25T11:54:08.874Z,1012.84
2017-09-25T11:55:08.867Z,1012.84
2017-09-25T11:56:08.861Z,1012.85
2017-09-25T11:57:08.856Z,1012.83
2017-09-25T11:58:08.850Z,1012.81
2017-09-25T11:59:08.842Z,1012.8
2017-09-25T12:00:08.839Z,1012.79
2017-09-25T12:01:08.834Z,1012.82
2017-09-25T12:02:08.825Z,1012.79
2017-09-25T12:03:08.823Z,1012.8
2017-09-25T12:04:08.813Z,1012.78
2017-09-25T12:05:08.811Z,1012.78
2017-09-25T12:06:08.801Z,1012.81
2017-09-25T12:07:08.797Z,1012.81
2017-09-25T12:08:08.794Z,1012.82